TS42 weather

Bexar Metro Medical Heliport
San Antonio, Texas, United States

Public forecast

Using degrees Fahrenheit for public forecast. Weather courtesy of forecast.io.

Closest aviation weather report (METAR) to Bexar Metro Medical Heliport

Closest report is San Antonio International Airport, 6.5 nm (12.0 km) ESE. Retrieved 2020/08/05 13:51 UTC (21 minutes ago):

KSAT 051351Z 22010KT 10SM BKN011 BKN250 26/23 A3004 RMK AO2 SLP152 BKN11 V SCT T02610228

Closest aviation forecast (TAF) to Bexar Metro Medical Heliport

Closest forecast is San Antonio International Airport, 6.5 nm (12.0 km) ESE. Retrieved 2020/08/05 12:22 UTC (2 hours ago):

TAF KSAT 051120Z 0512/0618 20006KT P6SM BKN011 FM051600 16012KT P6SM FEW060 FM060900 19007KT P6SM BKN011 FM061600 17010KT P6SM FEW030